Monona, Iowa
Current Conditions -  °F | °C
As of 4:35 AM on Friday 24 Oct 2014 (Local Time) from KPDC Reporting Station
Haze Haze  
Wind Chill: 51°   Ceiling: 200
Heat Index: 51°   Visibility: 0.75mi
Dew Point: 49°   Wind: 0mph
Humidity: 96%   Direction: NA
Pressure: 30.03"   Gusts: NA
Location:  43.05°N, 91.39°W
Report Text: KPDC 240935Z AUTO 00000KT 3/4SM BR OVC002 10/10 A3003 RMK AO2 T01030097
Loading
Personal Weather Stations






























Interactive Weather Map
Tropical Storm Tracking
New forecast layout! Learn more

10-Day Weather Forecast

Advertisements
Track Severe Weather on mobile